Strona główna
METAR-TAF:

METAR-TAF

Lotnisko :

Mobridge Municipal Airport

Mobridge, Dakota Południowa, Stany Zjednoczone

Szerokość geograficzna: 45-33-00N, Długość geograficzna: 100-24-31W, wysokość: 522 m

Aktualna obserwacja pogody

Raport powstał 41 minut temu, godzina 12:52 UTC
Wiatr 7 kt od południe
Temperatura 21°C
Wilgotność 78%
Ciśnienie 1008 hPa
Widzialność: 16.1 km
bezchmurnie

METAR: KMBG 171252Z AUTO 18007KT 10SM CLR 21/17 A2976 RMK AO2 SLP067 T02060172

czas: 08:33 (13:33 UTC)

Prognoza

Raport powstał 2 godziny i 7 minut temu, godzina 11:26 UTC
Prognoza ważna od 17 godzina 12 UTC do 18 godzina 12 UTC
Wiatr 10 kt od południowy zachód w porywach dochodzący do 18 kt
Widzialność: 10 km
Rozproszone chmury na wysokości 8000 ft
Przerywane chmury na wysokości 15000 ft
Od 17 godzina 1400 UTC
Wiatr 5 kt z kierunków zmiennych
Widzialność: 10 km
Rozproszone chmury na wysokości 4000 ft
Przerywane chmury na wysokości 10000 ft

TAF: KMBG 171126Z 1712/1812 22010G18KT P6SM SCT080 BKN150 FM171400 VRB05KT P6SM SCT040 BKN100

Obserwacja i prognoza pogody dla ponad 4000 lotnisk (raport METAR i TAF).

Dostępne stacje oznaczono żółtymi i czerwonymi punktami na mapie.

Najedź kursorem aby zobaczyć nazwę stacji.

Kliknij aby zobaczyć obserwacje i prognozy pogody.

Aby zmienić mapę: kliknij na zielony przycisk z czarnym krzyżykiem, aby powiększyć; na zielony przycisk z myślnikiem, aby pomniejszyć; na zielone strzałki, aby przejść do map sąsiednich.


METAR-TAF: